Time;durP1;ratioP1;P1;durP2;ratioP2;P2;SDS_P1;SDS_P2;PMS_P1;PMS_P2;Temp;Humidity;BMP_temperature;BMP_pressure;BME280_temperature;BME280_humidity;BME280_pressure;Samples;Min_cycle;Max_cycle;Signal;HPM_P1;HPM_P2
2024/01/10 00:01:32;;;;;;;3.60;2.72;;;;;;;17.87;37.47;103494.41;5025048;28;20045;-67
2024/01/10 00:03:57;;;;;;;4.40;2.92;;;;;;;17.94;37.49;103504.41;5027330;28;20083;-67
2024/01/10 00:06:23;;;;;;;3.05;2.30;;;;;;;17.95;37.37;103505.25;5022971;28;20038;-67
2024/01/10 00:08:49;;;;;;;4.13;3.10;;;;;;;17.84;37.59;103492.81;5019972;28;20048;-67
2024/01/10 00:11:15;;;;;;;5.20;2.78;;;;;;;17.86;37.73;103500.63;5026341;28;20140;-67
2024/01/10 00:13:40;;;;;;;2.97;2.63;;;;;;;17.77;37.64;103494.16;5026933;28;20033;-67
2024/01/10 00:16:06;;;;;;;4.50;2.63;;;;;;;17.81;37.73;103498.28;5007438;28;20048;-67
2024/01/10 00:18:32;;;;;;;3.83;2.63;;;;;;;17.80;37.73;103496.59;5029410;28;20164;-67
2024/01/10 00:20:57;;;;;;;3.63;2.63;;;;;;;17.90;37.55;103487.13;5024659;28;20539;-67
2024/01/10 00:23:23;;;;;;;3.85;3.08;;;;;;;18.08;37.12;103483.25;5028975;28;20045;-67
2024/01/10 00:25:49;;;;;;;3.90;2.97;;;;;;;18.01;37.21;103484.63;5020581;28;20049;-67
2024/01/10 00:28:18;;;;;;;3.80;3.20;;;;;;;17.93;37.28;103479.00;5020957;28;20124;-67
2024/01/10 00:30:44;;;;;;;3.63;2.83;;;;;;;17.92;37.68;103484.38;5023600;28;20067;-67
2024/01/10 00:33:11;;;;;;;4.07;3.03;;;;;;;17.89;37.55;103471.41;5026740;28;20374;-67
2024/01/10 00:35:37;;;;;;;3.47;2.85;;;;;;;17.89;37.47;103485.44;5026454;28;20032;-67
2024/01/10 00:38:03;;;;;;;4.25;3.15;;;;;;;17.92;37.55;103484.38;5022135;28;20032;-67
2024/01/10 00:40:28;;;;;;;5.75;3.13;;;;;;;17.86;37.66;103477.75;5033780;28;20029;-67
2024/01/10 00:42:54;;;;;;;3.75;2.90;;;;;;;17.80;37.69;103479.00;5015396;28;20402;-67
2024/01/10 00:45:20;;;;;;;4.25;3.05;;;;;;;17.78;37.61;103483.53;5024263;28;20037;-67
2024/01/10 00:47:46;;;;;;;4.35;2.90;;;;;;;17.68;37.85;103479.81;5010406;28;20038;-67
2024/01/10 00:50:11;;;;;;;4.00;2.92;;;;;;;17.65;37.90;103461.53;5022866;28;20096;-67
2024/01/10 00:52:37;;;;;;;4.32;2.85;;;;;;;17.72;37.73;103475.16;5008780;28;20643;-67
2024/01/10 00:55:02;;;;;;;3.22;2.53;;;;;;;17.71;37.89;103469.06;5020877;28;20041;-67
2024/01/10 00:57:28;;;;;;;4.57;3.28;;;;;;;17.68;37.82;103469.25;5022793;28;20037;-67
2024/01/10 00:59:53;;;;;;;3.83;2.70;;;;;;;17.74;37.66;103468.84;5025979;28;20099;-67
2024/01/10 01:02:19;;;;;;;4.13;2.85;;;;;;;17.69;37.68;103456.94;5022192;28;20116;-67
2024/01/10 01:04:44;;;;;;;4.13;3.13;;;;;;;17.69;37.64;103465.69;5023403;28;20041;-67
2024/01/10 01:07:10;;;;;;;4.50;2.95;;;;;;;17.66;37.91;103455.31;5024790;28;20472;-66
2024/01/10 01:09:35;;;;;;;3.53;2.83;;;;;;;17.63;37.79;103452.88;5022571;28;20072;-67
2024/01/10 01:12:01;;;;;;;3.63;2.85;;;;;;;17.56;38.04;103456.84;5027135;28;20050;-67
2024/01/10 01:14:26;;;;;;;3.33;2.65;;;;;;;17.65;37.70;103453.63;5022748;28;20037;-67
2024/01/10 01:16:52;;;;;;;4.70;3.42;;;;;;;17.84;37.33;103452.44;5007590;28;20081;-67
2024/01/10 01:19:18;;;;;;;3.08;2.25;;;;;;;18.03;37.06;103455.50;5021547;28;20045;-67
2024/01/10 01:21:43;;;;;;;4.88;2.97;;;;;;;18.20;36.84;103462.28;5027382;28;20029;-67
2024/01/10 01:24:09;;;;;;;3.95;2.95;;;;;;;18.22;36.91;103455.09;5012897;28;20457;-67
2024/01/10 01:26:34;;;;;;;3.05;2.50;;;;;;;18.29;36.67;103462.47;5026742;28;20086;-67
2024/01/10 01:29:00;;;;;;;6.13;2.78;;;;;;;18.18;36.63;103443.91;5025450;28;20281;-67
2024/01/10 01:31:26;;;;;;;3.35;2.60;;;;;;;18.24;36.63;103454.03;5016817;28;20481;-67
2024/01/10 01:33:51;;;;;;;3.53;2.90;;;;;;;18.25;36.77;103465.44;5028807;28;20060;-67
2024/01/10 01:36:17;;;;;;;3.58;2.70;;;;;;;18.07;36.82;103447.28;5019648;28;20366;-67
2024/01/10 01:38:43;;;;;;;5.25;2.88;;;;;;;18.16;36.92;103464.28;5029279;28;20060;-67
2024/01/10 01:41:08;;;;;;;4.07;2.72;;;;;;;18.11;37.17;103464.56;5024369;28;20052;-67
2024/01/10 01:43:35;;;;;;;5.05;2.70;;;;;;;18.04;37.14;103457.19;5026801;28;20029;-67
2024/01/10 01:46:01;;;;;;;3.88;2.70;;;;;;;18.01;36.99;103465.31;5024402;28;20049;-67
2024/01/10 01:48:27;;;;;;;4.38;2.70;;;;;;;17.92;37.20;103461.50;5038466;28;20112;-67
2024/01/10 01:50:57;;;;;;;4.53;2.95;;;;;;;17.89;37.31;103469.63;5017697;28;20033;-66
2024/01/10 01:53:23;;;;;;;3.90;2.80;;;;;;;17.83;37.40;103459.50;5030900;28;20030;-67
2024/01/10 01:55:49;;;;;;;5.25;2.72;;;;;;;17.63;37.24;103429.19;5010620;28;20068;-66
2024/01/10 01:58:15;;;;;;;4.75;2.92;;;;;;;17.78;37.55;103466.88;5026570;28;20794;-67
2024/01/10 02:00:41;;;;;;;3.88;2.90;;;;;;;17.75;37.65;103465.25;5030907;28;20041;-67
2024/01/10 02:03:09;;;;;;;3.80;2.78;;;;;;;17.72;37.67;103462.00;5024542;28;20041;-67
2024/01/10 02:05:34;;;;;;;3.70;2.50;;;;;;;17.69;37.61;103459.56;5030103;28;20592;-67
2024/01/10 02:07:59;;;;;;;4.18;2.88;;;;;;;17.66;37.70;103459.75;5023975;28;20040;-66
2024/01/10 02:10:25;;;;;;;4.05;2.72;;;;;;;17.40;37.67;103419.28;5022028;28;20033;-67
2024/01/10 02:12:51;;;;;;;3.38;2.90;;;;;;;17.58;37.76;103454.97;5020064;28;20721;-67
2024/01/10 02:15:17;;;;;;;4.60;3.00;;;;;;;17.51;37.88;103454.53;5024728;28;20397;-67
2024/01/10 02:17:43;;;;;;;3.67;2.63;;;;;;;17.51;38.09;103461.59;5010510;28;20591;-67
2024/01/10 02:20:11;;;;;;;4.95;3.10;;;;;;;17.39;37.82;103444.78;5021671;28;20040;-66
2024/01/10 02:22:37;;;;;;;3.63;2.80;;;;;;;17.46;37.98;103459.25;5022290;28;20112;-67
2024/01/10 02:25:13;;;;;;;5.85;2.90;;;;;;;17.41;37.88;103452.59;5030541;28;20163;-67
2024/01/10 02:27:40;;;;;;;3.20;2.60;;;;;;;17.42;38.05;103449.88;5028199;28;20037;-67
2024/01/10 02:30:07;;;;;;;3.45;2.50;;;;;;;17.39;37.99;103450.06;5025082;28;20064;-67
2024/01/10 02:32:33;;;;;;;3.90;2.83;;;;;;;17.36;38.11;103452.06;5013335;28;20041;-67
2024/01/10 02:34:59;;;;;;;4.10;2.55;;;;;;;17.26;37.98;103424.66;5029697;28;20037;-67
2024/01/10 02:37:24;;;;;;;3.15;2.67;;;;;;;17.43;37.82;103440.19;5023932;28;20060;-67
2024/01/10 02:39:50;;;;;;;4.60;3.10;;;;;;;17.58;37.52;103447.06;5032881;28;20048;-67
2024/01/10 02:42:15;;;;;;;3.60;2.67;;;;;;;17.65;37.35;103443.09;5022550;28;20144;-67
2024/01/10 02:44:41;;;;;;;3.47;2.92;;;;;;;17.65;37.55;103435.19;5034089;28;20029;-67
2024/01/10 02:47:07;;;;;;;3.47;2.65;;;;;;;17.59;37.40;103435.56;5025182;28;20037;-67
2024/01/10 02:49:33;;;;;;;3.60;2.67;;;;;;;17.56;37.69;103434.94;5014824;28;20052;-67
2024/01/10 02:51:59;;;;;;;3.90;2.70;;;;;;;17.53;37.69;103433.34;5032185;28;20842;-67
2024/01/10 02:54:25;;;;;;;3.65;2.78;;;;;;;17.50;37.67;103439.66;5032881;28;20046;-67
2024/01/10 02:56:51;;;;;;;4.07;2.60;;;;;;;17.55;37.50;103435.88;5029143;28;20480;-67
2024/01/10 02:59:16;;;;;;;3.72;2.90;;;;;;;17.61;37.37;103438.97;5025749;28;20056;-67
2024/01/10 03:01:42;;;;;;;3.85;2.88;;;;;;;17.62;37.56;103431.91;5032932;28;20111;-67
2024/01/10 03:04:07;;;;;;;2.97;2.42;;;;;;;17.55;37.54;103427.97;5030969;28;20033;-67
2024/01/10 03:06:33;;;;;;;3.80;2.97;;;;;;;17.46;37.47;103419.75;5027817;28;20056;-67
2024/01/10 03:08:58;;;;;;;2.75;2.25;;;;;;;17.46;37.66;103425.03;5025491;28;20372;-67
2024/01/10 03:11:24;;;;;;;4.53;2.85;;;;;;;17.43;37.51;103421.75;5023932;28;20041;-67
2024/01/10 03:13:52;;;;;;;4.35;2.88;;;;;;;17.49;37.78;103435.34;5022472;28;20358;-67
2024/01/10 03:16:18;;;;;;;3.35;2.45;;;;;;;17.51;37.42;103430.81;5025563;28;20050;-67
2024/01/10 03:18:44;;;;;;;4.07;2.50;;;;;;;17.65;37.37;103436.97;5027344;28;20144;-67
2024/01/10 03:21:09;;;;;;;4.07;3.00;;;;;;;17.78;37.12;103430.81;5026372;28;20041;-67
2024/01/10 03:23:35;;;;;;;3.40;2.50;;;;;;;17.75;36.90;103406.44;5020374;28;20049;-67
2024/01/10 03:26:00;;;;;;;3.13;2.83;;;;;;;17.81;37.10;103427.13;5015166;28;20520;-67
2024/01/10 03:28:26;;;;;;;3.30;2.30;;;;;;;17.71;37.25;103416.34;5031567;28;20048;-67
2024/01/10 03:30:51;;;;;;;3.85;2.85;;;;;;;17.70;37.28;103422.56;5023838;28;20061;-67
2024/01/10 03:33:17;;;;;;;3.15;2.30;;;;;;;17.63;37.41;103410.72;5031294;28;20045;-67
2024/01/10 03:35:43;;;;;;;3.08;2.22;;;;;;;17.63;37.25;103410.72;5022628;28;20095;-67
2024/01/10 03:38:08;;;;;;;4.05;3.17;;;;;;;17.61;37.49;103412.63;5035251;28;20038;-67
2024/01/10 03:40:34;;;;;;;3.55;2.85;;;;;;;17.62;37.42;103413.47;5025570;28;20047;-67
2024/01/10 03:43:00;;;;;;;3.40;2.97;;;;;;;17.57;37.58;103408.47;5026044;28;20437;-67
2024/01/10 03:45:26;;;;;;;3.60;2.60;;;;;;;17.53;37.82;103412.28;5028351;28;20045;-67
2024/01/10 03:47:51;;;;;;;3.45;2.70;;;;;;;17.51;37.58;103411.53;5012039;28;20053;-67
2024/01/10 03:50:20;;;;;;;5.40;3.65;;;;;;;17.39;37.74;103396.53;5029381;28;20048;-67
2024/01/10 03:52:46;;;;;;;66.32;54.67;;;;;;;17.39;37.74;103400.00;5033601;28;20128;-67
2024/01/10 03:55:13;;;;;;;3.72;2.90;;;;;;;17.34;37.88;103399.47;5028536;28;20135;-67
2024/01/10 03:57:39;;;;;;;3.97;3.10;;;;;;;17.29;37.75;103384.94;5028921;28;20182;-67
2024/01/10 04:00:06;;;;;;;3.10;2.80;;;;;;;17.38;37.78;103390.41;5011113;28;20112;-67
2024/01/10 04:02:32;;;;;;;4.10;2.88;;;;;;;17.58;37.31;103401.41;5032003;28;20052;-67
2024/01/10 04:04:58;;;;;;;3.15;2.50;;;;;;;17.55;37.34;103402.47;5024804;28;20037;-67
2024/01/10 04:07:25;;;;;;;3.53;2.60;;;;;;;17.46;37.49;103403.94;5030798;28;20099;-67
2024/01/10 04:09:51;;;;;;;4.22;2.83;;;;;;;17.45;37.68;103398.78;5024203;28;20098;-67
2024/01/10 04:12:16;;;;;;;3.45;2.40;;;;;;;17.42;37.65;103397.19;5020898;28;20413;-67
2024/01/10 04:19:09;;;;;;;5.10;2.78;;;;;;;17.57;37.27;103397.94;5004699;28;20099;-66
2024/01/10 04:21:34;;;;;;;3.85;2.58;;;;;;;17.67;37.23;103390.28;4983603;28;20708;-66
2024/01/10 04:24:00;;;;;;;4.57;3.15;;;;;;;17.74;37.25;103397.69;4979997;28;20100;-66
2024/01/10 04:26:25;;;;;;;3.30;2.60;;;;;;;17.78;36.99;103398.34;4990255;28;20045;-66
2024/01/10 04:28:51;;;;;;;3.40;2.30;;;;;;;17.81;36.74;103396.34;5007101;28;20045;-66
2024/01/10 04:31:16;;;;;;;3.45;2.58;;;;;;;17.77;36.90;103388.72;4983014;28;20045;-66
2024/01/10 04:33:42;;;;;;;3.65;3.03;;;;;;;17.77;36.88;103396.63;4987991;28;20430;-66
2024/01/10 04:36:07;;;;;;;4.45;2.55;;;;;;;17.71;36.93;103391.78;4998212;28;20039;-67
2024/01/10 04:38:33;;;;;;;4.05;2.80;;;;;;;17.57;37.13;103376.03;4988369;28;20066;-66
2024/01/10 04:40:59;;;;;;;3.95;2.65;;;;;;;17.62;37.52;103400.28;4986760;28;20053;-67
2024/01/10 04:43:24;;;;;;;4.22;2.53;;;;;;;17.62;37.28;103401.13;4985823;28;20039;-66
2024/01/10 04:45:50;;;;;;;3.15;2.20;;;;;;;17.59;37.33;103392.56;4984810;28;20344;-65
2024/01/10 04:48:15;;;;;;;2.80;2.50;;;;;;;17.51;37.46;103398.38;4978569;28;20041;-66
2024/01/10 04:50:41;;;;;;;3.72;2.65;;;;;;;17.50;37.49;103402.78;4980027;28;20042;-66
2024/01/10 04:53:06;;;;;;;3.60;2.60;;;;;;;17.53;37.23;103378.88;4996825;28;20039;-66
2024/01/10 04:55:32;;;;;;;3.25;2.50;;;;;;;17.72;36.88;103385.56;5001069;28;20081;-67
2024/01/10 04:57:57;;;;;;;3.40;2.55;;;;;;;17.85;36.91;103383.78;4989076;28;20069;-66
2024/01/10 05:00:23;;;;;;;57.42;35.25;;;;;;;17.93;36.80;103381.47;4981145;28;20053;-67
2024/01/10 05:02:48;;;;;;;3.78;2.50;;;;;;;17.92;36.73;103382.41;4986884;28;20073;-66
2024/01/10 05:05:14;;;;;;;3.03;2.30;;;;;;;17.92;36.69;103384.22;4984893;28;20046;-66
2024/01/10 05:07:39;;;;;;;6.50;5.90;;;;;;;17.79;36.73;103374.53;5002774;28;20057;-66
2024/01/10 05:10:05;;;;;;;22.70;16.85;;;;;;;17.90;36.92;103386.09;5006778;28;20042;-66
2024/01/10 05:12:31;;;;;;;10.40;9.35;;;;;;;17.86;36.84;103382.84;4996651;28;20042;-67
2024/01/10 05:14:56;;;;;;;231.27;130.23;;;;;;;17.77;36.78;103381.69;4984857;28;20418;-66
2024/01/10 05:17:22;;;;;;;104.32;79.07;;;;;;;17.74;36.94;103379.25;4996459;28;20057;-66
2024/01/10 05:19:47;;;;;;;16.95;14.07;;;;;;;17.59;37.06;103361.78;4998348;28;20058;-66
2024/01/10 05:22:13;;;;;;;4.00;2.63;;;;;;;17.59;37.34;103374.97;5035327;28;20041;-66
2024/01/10 05:24:39;;;;;;;5.00;4.10;;;;;;;17.53;37.23;103363.06;5032769;28;20033;-67
2024/01/10 05:27:05;;;;;;;253.70;137.18;;;;;;;17.51;37.30;103361.47;5034030;28;20040;-66
2024/01/10 05:29:30;;;;;;;391.20;189.75;;;;;;;17.49;37.53;103363.38;5022126;28;20046;-66
2024/01/10 05:31:56;;;;;;;111.50;81.63;;;;;;;17.46;37.22;103364.44;5026930;28;20041;-66
2024/01/10 05:34:21;;;;;;;18.73;12.75;;;;;;;17.37;37.60;103359.75;5027107;28;20126;-66
2024/01/10 05:36:48;;;;;;;40.63;36.80;;;;;;;17.37;37.70;103372.09;5024779;28;20033;-66
2024/01/10 05:39:15;;;;;;;7.70;6.88;;;;;;;17.33;37.50;103370.63;5030221;28;20060;-66
2024/01/10 05:41:43;;;;;;;24.73;22.65;;;;;;;17.48;37.30;103361.69;5032135;28;20448;-66
2024/01/10 05:44:09;;;;;;;94.50;78.88;;;;;;;17.64;37.01;103365.00;5032285;28;20067;-66
2024/01/10 05:46:34;;;;;;;15.20;14.00;;;;;;;17.89;36.76;103372.09;5002975;28;20525;-66
2024/01/10 05:49:00;;;;;;;58.13;52.65;;;;;;;17.99;36.48;103367.88;5026622;28;20492;-67
2024/01/10 05:51:25;;;;;;;78.20;65.10;;;;;;;18.06;36.43;103370.91;5031314;28;20056;-66
2024/01/10 05:53:51;;;;;;;18.75;16.80;;;;;;;17.97;36.32;103347.84;5020237;28;20037;-66
2024/01/10 05:56:16;;;;;;;4.53;3.75;;;;;;;18.07;36.43;103372.59;5030187;28;20044;-66
2024/01/10 05:58:42;;;;;;;60.28;45.83;;;;;;;18.06;36.64;103369.13;5027682;28;20079;-67
2024/01/10 06:01:09;;;;;;;183.13;107.85;;;;;;;17.99;36.79;103367.88;5023421;28;20088;-66
2024/01/10 06:03:36;;;;;;;187.68;114.10;;;;;;;17.97;36.64;103368.94;5033192;28;20736;-66
2024/01/10 06:06:01;;;;;;;189.20;111.22;;;;;;;17.92;36.79;103366.59;5036131;28;20044;-66
2024/01/10 06:08:28;;;;;;;205.98;119.30;;;;;;;17.90;36.67;103359.75;5032997;28;20036;-66
2024/01/10 06:10:54;;;;;;;77.68;68.95;;;;;;;17.91;36.79;103358.78;5023235;28;20509;-66
2024/01/10 06:13:19;;;;;;;26.45;23.58;;;;;;;17.86;36.88;103364.38;5013006;28;20045;-66
2024/01/10 06:15:45;;;;;;;50.60;45.42;;;;;;;17.80;36.99;103364.81;5022500;28;20129;-66
2024/01/10 06:18:11;;;;;;;56.40;44.88;;;;;;;17.72;36.93;103364.47;5033070;28;20052;-67
2024/01/10 06:20:39;;;;;;;23.58;21.38;;;;;;;17.66;37.16;103354.34;5028030;28;20058;-66
2024/01/10 06:23:04;;;;;;;57.35;40.67;;;;;;;17.61;37.17;103367.00;5028478;28;20033;-66
2024/01/10 06:25:30;;;;;;;143.60;100.72;;;;;;;17.56;37.51;103356.75;5032089;28;20049;-66
2024/01/10 06:27:56;;;;;;;83.82;47.47;;;;;;;17.52;37.39;103358.75;5007293;28;20052;-66
2024/01/10 06:30:21;;;;;;;287.95;147.88;;;;;;;17.41;37.49;103349.84;5020188;28;20037;-66
2024/01/10 06:32:47;;;;;;;259.77;131.75;;;;;;;17.46;37.48;103361.78;5016711;28;20095;-66
2024/01/10 06:35:13;;;;;;;280.55;147.38;;;;;;;17.43;37.40;103371.69;5022614;28;20442;-66
2024/01/10 06:37:38;;;;;;;246.80;134.85;;;;;;;17.35;37.64;103363.44;5011034;28;20052;-66
2024/01/10 06:40:05;;;;;;;177.20;102.82;;;;;;;17.29;37.68;103355.97;5031561;28;20041;-67
2024/01/10 06:42:31;;;;;;;5.93;4.28;;;;;;;17.26;37.74;103364.06;5025554;28;20041;-66
2024/01/10 06:44:56;;;;;;;8.55;3.92;;;;;;;17.47;37.27;103363.47;5030458;28;20068;-66
2024/01/10 06:47:22;;;;;;;4.00;3.00;;;;;;;17.65;37.24;103364.03;5013318;28;20150;-66
2024/01/10 06:49:47;;;;;;;3.30;2.50;;;;;;;17.83;36.77;103369.88;4992796;28;20041;-67
2024/01/10 06:52:13;;;;;;;4.07;2.72;;;;;;;17.95;36.51;103362.91;5028040;28;20653;-66
2024/01/10 06:54:39;;;;;;;4.32;3.10;;;;;;;17.97;36.50;103367.16;5026932;28;20072;-67
2024/01/10 06:57:04;;;;;;;3.65;2.47;;;;;;;17.93;36.49;103364.81;5025156;28;20049;-66
2024/01/10 06:59:30;;;;;;;5.95;3.10;;;;;;;17.98;36.60;103371.47;5026592;28;20034;-66
2024/01/10 07:02:00;;;;;;;4.30;2.58;;;;;;;17.95;36.87;103369.00;5009173;28;20034;-66
2024/01/10 07:04:27;;;;;;;3.53;2.53;;;;;;;17.97;36.65;103372.41;5025945;28;20368;-66
2024/01/10 07:06:53;;;;;;;3.97;2.50;;;;;;;17.88;36.62;103370.41;5024002;28;20064;-66
2024/01/10 07:09:19;;;;;;;3.95;2.72;;;;;;;17.89;36.63;103379.16;5009698;28;20045;-66
2024/01/10 07:11:48;;;;;;;3.25;2.47;;;;;;;17.85;36.69;103375.88;5016684;28;20053;-66
2024/01/10 07:14:14;;;;;;;2.90;2.20;;;;;;;17.78;36.87;103372.84;5013441;28;20038;-66
2024/01/10 07:16:42;;;;;;;3.30;2.42;;;;;;;17.75;36.98;103380.94;5033748;28;20616;-67
2024/01/10 07:19:13;;;;;;;3.47;2.65;;;;;;;17.57;36.79;103350.53;5026968;28;20383;-66
2024/01/10 07:21:42;;;;;;;3.72;2.45;;;;;;;17.91;36.73;103377.25;5030104;28;20047;-66
2024/01/10 07:24:09;;;;;;;4.22;2.97;;;;;;;18.08;36.40;103383.03;5022339;28;20765;-66
2024/01/10 07:26:36;;;;;;;4.55;2.67;;;;;;;17.71;37.29;103368.91;5030261;28;20378;-67
2024/01/10 07:29:02;;;;;;;2.75;2.20;;;;;;;17.85;37.32;103373.25;5020398;28;20392;-66
2024/01/10 07:31:29;;;;;;;4.70;3.25;;;;;;;18.05;36.97;103377.16;5034053;28;20608;-66
2024/01/10 07:33:56;;;;;;;4.07;2.78;;;;;;;18.16;36.95;103377.25;5025429;28;20770;-66
2024/01/10 07:36:24;;;;;;;11.55;8.75;;;;;;;18.20;37.00;103370.81;5027988;28;20045;-66
2024/01/10 07:38:49;;;;;;;5.63;5.03;;;;;;;18.22;37.03;103382.09;5023574;28;20629;-66
2024/01/10 07:41:15;;;;;;;7.22;5.65;;;;;;;18.24;36.78;103380.19;5023701;28;20037;-66
2024/01/10 07:43:41;;;;;;;9.05;7.15;;;;;;;18.36;36.74;103381.97;5019193;28;20043;-67
2024/01/10 07:46:06;;;;;;;8.95;7.38;;;;;;;18.50;36.32;103378.38;5026759;28;20033;-67
2024/01/10 07:48:32;;;;;;;6.63;5.10;;;;;;;18.56;36.21;103379.72;5020827;28;20042;-67
2024/01/10 07:50:57;;;;;;;5.63;4.75;;;;;;;18.57;36.10;103371.69;5034606;28;20053;-67
2024/01/10 07:53:26;;;;;;;5.72;5.13;;;;;;;18.58;36.19;103370.72;4987043;28;20390;-66
2024/01/10 07:55:52;;;;;;;6.35;5.13;;;;;;;18.56;36.13;103372.63;5010378;28;20064;-66
2024/01/10 07:58:18;;;;;;;7.38;5.60;;;;;;;18.46;36.05;103355.75;5030682;28;20049;-66
2024/01/10 08:00:45;;;;;;;5.35;4.53;;;;;;;18.45;36.22;103355.88;5016586;28;20491;-66
2024/01/10 08:03:10;;;;;;;5.60;4.72;;;;;;;18.42;36.26;103363.06;5024321;28;20230;-66
2024/01/10 08:05:36;;;;;;;8.82;8.10;;;;;;;18.43;35.96;103372.66;5021930;28;20608;-66
2024/01/10 08:08:01;;;;;;;47.58;42.00;;;;;;;18.36;36.30;103373.22;5022674;28;20057;-67
2024/01/10 08:10:27;;;;;;;5.97;5.05;;;;;;;18.39;36.34;103384.38;5026587;28;20598;-67
2024/01/10 08:12:53;;;;;;;5.03;4.40;;;;;;;18.38;36.10;103389.78;5024339;28;20045;-67
2024/01/10 08:15:19;;;;;;;4.30;3.45;;;;;;;18.31;36.19;103391.13;5022353;28;20037;-67
2024/01/10 08:17:45;;;;;;;7.13;5.75;;;;;;;18.15;36.44;103378.22;5024246;28;20091;-66
2024/01/10 08:20:14;;;;;;;7.30;5.38;;;;;;;18.20;36.57;103376.09;4993089;28;20537;-66
2024/01/10 08:22:40;;;;;;;11.52;8.00;;;;;;;18.30;36.07;103378.91;4987784;28;20053;-66
2024/01/10 08:25:06;;;;;;;10.35;7.05;;;;;;;18.40;35.98;103383.44;4985172;28;20053;-72
2024/01/10 08:27:33;;;;;;;8.32;7.03;;;;;;;18.40;36.11;103379.94;4990853;28;20043;-72
2024/01/10 08:29:59;;;;;;;5.40;3.90;;;;;;;17.96;36.99;103361.97;4984145;28;20083;-71
2024/01/10 08:32:24;;;;;;;4.78;3.35;;;;;;;18.04;37.28;103384.22;4980668;28;20466;-72
2024/01/10 08:34:50;;;;;;;4.63;3.47;;;;;;;18.15;36.98;103391.41;4982735;28;20076;-72
2024/01/10 08:37:17;;;;;;;3.85;3.20;;;;;;;18.30;36.61;103387.66;4983604;28;20049;-72
2024/01/10 08:39:44;;;;;;;6.72;4.15;;;;;;;18.35;36.13;103374.16;4977698;28;20050;-75
2024/01/10 08:42:10;;;;;;;5.70;4.22;;;;;;;18.12;37.51;103389.78;4930088;28;20042;-76
2024/01/10 08:44:35;;;;;;;5.40;3.85;;;;;;;18.33;37.56;103384.00;4981866;28;20038;-69
2024/01/10 08:47:01;;;;;;;5.95;3.67;;;;;;;18.60;36.65;103389.09;4983324;28;20156;-76
2024/01/10 08:49:26;;;;;;;9.02;5.05;;;;;;;18.52;35.73;103362.41;4991049;28;20077;-77
2024/01/10 08:51:53;;;;;;;7.78;5.20;;;;;;;18.56;35.52;103369.16;5004995;28;20081;-76
2024/01/10 08:54:19;;;;;;;8.52;4.82;;;;;;;18.55;35.46;103370.09;5001488;28;20593;-75
2024/01/10 08:56:48;;;;;;;8.55;5.55;;;;;;;18.55;35.32;103372.75;4936745;28;20378;-72
2024/01/10 08:59:14;;;;;;;8.27;5.63;;;;;;;18.46;35.11;103373.38;5002886;28;20701;-74
2024/01/10 09:01:39;;;;;;;9.13;6.45;;;;;;;18.30;35.03;103361.28;4936725;28;20057;-74
2024/01/10 09:04:06;;;;;;;10.13;5.13;;;;;;;18.31;34.99;103373.53;5009186;28;20104;-74
2024/01/10 09:06:32;;;;;;;12.07;5.45;;;;;;;18.37;34.90;103370.47;4988672;28;20112;-79
2024/01/10 09:08:58;;;;;;;7.72;5.15;;;;;;;18.36;34.79;103367.94;5011816;28;20038;-81
2024/01/10 09:11:26;;;;;;;9.13;5.20;;;;;;;18.12;34.71;103339.69;4940848;28;20056;-78
2024/01/10 09:13:52;;;;;;;8.48;4.93;;;;;;;18.29;34.56;103364.03;4983998;28;20058;-77
2024/01/10 09:16:20;;;;;;;8.63;5.38;;;;;;;18.29;34.35;103367.50;4934992;28;20061;-77
2024/01/10 09:18:46;;;;;;;8.32;5.35;;;;;;;18.25;34.44;103375.75;4983550;28;20125;-75
2024/01/10 09:21:12;;;;;;;9.77;5.65;;;;;;;18.22;34.50;103363.63;4951766;28;20469;-73
2024/01/10 09:23:37;;;;;;;11.85;6.93;;;;;;;18.30;34.44;103382.38;4993382;28;20099;-74
2024/01/10 09:26:03;;;;;;;7.45;5.20;;;;;;;17.87;35.92;103383.69;5006727;28;20072;-76
2024/01/10 09:28:29;;;;;;;8.57;4.95;;;;;;;17.89;36.35;103384.41;4959794;28;20049;-76
2024/01/10 09:30:54;;;;;;;5.55;3.92;;;;;;;17.87;36.63;103381.03;5007484;28;20042;-76
2024/01/10 09:33:21;;;;;;;5.95;3.83;;;;;;;17.93;36.48;103372.72;4972158;28;20089;-76
2024/01/10 09:35:46;;;;;;;6.55;3.83;;;;;;;18.09;36.39;103389.16;5002823;28;20141;-75
2024/01/10 09:38:12;;;;;;;5.88;3.50;;;;;;;18.00;36.50;103368.72;4946345;28;21777;-70
2024/01/10 09:40:38;;;;;;;5.70;3.90;;;;;;;18.11;36.47;103387.25;5007122;28;20053;-70
2024/01/10 09:43:07;;;;;;;5.20;3.25;;;;;;;18.00;36.71;103374.00;4958376;28;20045;-76
2024/01/10 09:45:35;;;;;;;6.75;3.45;;;;;;;17.97;36.75;103367.16;5008369;28;20042;-76
2024/01/10 09:48:01;;;;;;;7.10;3.55;;;;;;;18.04;36.46;103364.91;4989741;28;20184;-74
2024/01/10 09:50:27;;;;;;;5.32;3.53;;;;;;;18.06;36.60;103376.19;5005937;28;20291;-76
2024/01/10 09:52:58;;;;;;;6.97;4.20;;;;;;;18.12;36.63;103375.75;4951946;28;20480;-68
2024/01/10 09:55:30;;;;;;;4.43;3.22;;;;;;;18.14;36.58;103373.03;5006091;28;20587;-68
2024/01/10 09:57:56;;;;;;;6.53;4.03;;;;;;;18.14;36.32;103373.03;4950965;28;20563;-74
2024/01/10 10:00:23;;;;;;;6.57;3.90;;;;;;;18.05;36.49;103348.16;5004837;28;20130;-74
2024/01/10 10:02:51;;;;;;;4.72;3.13;;;;;;;18.21;36.24;103369.84;4968313;28;21490;-75
2024/01/10 10:05:17;;;;;;;5.00;3.42;;;;;;;18.36;35.94;103375.84;5017433;28;20061;-74
2024/01/10 10:07:55;;;;;;;4.93;2.92;;;;;;;18.40;35.84;103370.25;4980131;28;20088;-77
2024/01/10 10:10:20;;;;;;;3.83;2.92;;;;;;;18.37;36.05;103364.34;5005480;28;20141;-75
2024/01/10 10:12:53;;;;;;;5.22;3.03;;;;;;;18.35;35.97;103371.53;4987808;28;20050;-75
2024/01/10 10:15:27;;;;;;;5.10;3.08;;;;;;;18.33;35.88;103365.53;5003719;28;20041;-75
2024/01/10 10:17:54;;;;;;;4.57;3.20;;;;;;;18.37;35.78;103370.47;4958756;28;20081;-68
2024/01/10 10:20:28;;;;;;;4.82;3.05;;;;;;;18.39;35.84;103370.34;5003051;28;20141;-67
2024/01/10 10:23:04;;;;;;;4.88;3.38;;;;;;;18.27;35.78;103350.09;4972944;28;20034;-74
2024/01/10 10:25:34;;;;;;;4.03;2.90;;;;;;;18.32;35.72;103363.84;5003287;28;20045;-77
2024/01/10 10:28:01;;;;;;;;;;;;;;;18.35;35.90;103367.09;4954580;28;20030;-76
2024/01/10 10:30:27;;;;;;;5.75;3.03;;;;;;;18.28;35.83;103354.44;4988862;28;19917;-76
2024/01/10 10:32:55;;;;;;;4.78;3.17;;;;;;;18.28;35.97;103372.91;5002870;28;20719;-76
2024/01/10 10:35:21;;;;;;;4.60;3.08;;;;;;;18.31;35.88;103367.41;4947295;28;20045;-75
2024/01/10 10:37:52;;;;;;;4.38;3.00;;;;;;;18.21;35.75;103361.09;5013501;28;20127;-76
2024/01/10 10:40:18;;;;;;;5.28;2.65;;;;;;;18.23;35.75;103352.13;4953521;28;20045;-70
2024/01/10 10:42:46;;;;;;;3.95;3.03;;;;;;;18.22;35.66;103355.72;5004759;28;20063;-70
2024/01/10 10:45:17;;;;;;;5.65;3.53;;;;;;;18.10;35.88;103336.31;4951419;28;20042;-70
2024/01/10 10:47:45;;;;;;;4.35;3.20;;;;;;;18.27;36.03;103360.66;5019345;28;20038;-69
2024/01/10 10:50:20;;;;;;;5.45;3.42;;;;;;;18.31;35.79;103348.94;4953399;28;20656;-69
2024/01/10 10:52:47;;;;;;;5.53;3.58;;;;;;;18.36;35.75;103363.50;5001115;28;20620;-71
2024/01/10 10:55:17;;;;;;;4.80;3.03;;;;;;;18.29;35.93;103361.38;4991152;28;21156;-69
2024/01/10 10:57:48;;;;;;;4.90;2.95;;;;;;;18.27;36.16;103361.50;5015741;28;20033;-70
2024/01/10 11:00:15;;;;;;;5.65;3.65;;;;;;;18.25;36.24;103362.56;4953536;28;20674;-76
2024/01/10 11:02:42;;;;;;;4.47;3.13;;;;;;;18.26;36.11;103362.47;5000090;28;20046;-76
2024/01/10 11:05:09;;;;;;;4.70;3.10;;;;;;;18.18;35.97;103342.88;4953948;28;20152;-70
2024/01/10 11:07:39;;;;;;;6.53;3.33;;;;;;;18.31;36.09;103364.75;5001251;28;20524;-70
2024/01/10 11:10:27;;;;;;;3.70;2.95;;;;;;;18.29;36.00;103350.84;4952948;28;20924;-76
2024/01/10 11:13:28;;;;;;;4.00;2.92;;;;;;;18.42;35.86;103360.41;5021012;28;20053;-77
2024/01/10 11:16:15;;;;;;;4.57;3.10;;;;;;;18.44;35.76;103352.41;4958841;28;20441;-68
2024/01/10 11:18:45;;;;;;;4.88;3.17;;;;;;;18.46;35.93;103360.19;5001457;28;20596;-67
2024/01/10 11:21:39;;;;;;;4.35;3.35;;;;;;;18.57;35.32;103361.13;4987630;28;20061;-76
2024/01/10 11:24:06;;;;;;;5.28;3.75;;;;;;;18.46;35.57;103352.28;4984903;28;20022;-75